Time;durP1;ratioP1;P1;durP2;ratioP2;P2;SDS_P1;SDS_P2;PMS_P1;PMS_P2;Temp;Humidity;BMP_temperature;BMP_pressure;BME280_temperature;BME280_humidity;BME280_pressure;Samples;Min_cycle;Max_cycle;Signal;HPM_P1;HPM_P2
2021/01/25 00:01:54;;;;;;;31.82;21.42;;;;;;;0.83;82.24;96574.36;1828802;78;21345;-61
2021/01/25 00:04:21;;;;;;;27.52;20.02;;;;;;;0.87;82.21;96586.95;1828731;78;20908;-61
2021/01/25 00:06:50;;;;;;;27.93;19.90;;;;;;;0.93;82.21;96583.94;1828715;78;20963;-60
2021/01/25 00:09:18;;;;;;;28.05;20.20;;;;;;;0.98;82.17;96569.97;1828748;78;20982;-61
2021/01/25 00:11:47;;;;;;;30.17;21.10;;;;;;;1.02;82.09;96562.20;1828691;78;20991;-62
2021/01/25 00:14:17;;;;;;;30.02;22.70;;;;;;;1.05;81.99;96569.12;1828617;78;21011;-61
2021/01/25 00:16:45;;;;;;;36.28;23.62;;;;;;;1.08;82.04;96580.83;1828678;78;21011;-61
2021/01/25 00:19:13;;;;;;;40.23;26.40;;;;;;;1.14;82.11;96582.27;1828622;78;20968;-61
2021/01/25 00:21:43;;;;;;;39.35;25.37;;;;;;;1.18;82.23;96570.09;1828858;78;21439;-61
2021/01/25 00:24:13;;;;;;;40.10;25.55;;;;;;;1.24;82.41;96572.33;1828770;78;21195;-61
2021/01/25 00:26:55;;;;;;;34.05;23.80;;;;;;;1.29;82.49;96568.09;1737431;82;21077;-62
2021/01/25 00:29:26;;;;;;;37.83;24.57;;;;;;;1.35;82.64;96558.94;1760121;81;20947;-62
2021/01/25 00:31:54;;;;;;;38.13;25.45;;;;;;;1.39;82.62;96554.69;1760084;81;20915;-61
2021/01/25 00:34:22;;;;;;;27.93;19.67;;;;;;;1.43;82.67;96550.91;1760038;81;20932;-61
2021/01/25 00:36:53;;;;;;;24.25;18.23;;;;;;;1.50;82.68;96551.38;1768217;81;21201;-62
2021/01/25 00:39:20;;;;;;;25.97;19.52;;;;;;;1.55;82.63;96535.21;1733991;82;20961;-62
2021/01/25 00:41:47;;;;;;;27.62;21.20;;;;;;;1.58;82.52;96530.56;1734176;82;21021;-62
2021/01/25 00:44:16;;;;;;;33.88;21.80;;;;;;;1.61;82.33;96519.79;1734003;82;20985;-63
2021/01/25 00:46:45;;;;;;;31.17;21.82;;;;;;;1.63;82.18;96510.43;1734153;82;21033;-61
2021/01/25 00:49:13;;;;;;;36.38;23.87;;;;;;;1.65;82.12;96516.47;1734084;82;21209;-61
2021/01/25 00:51:42;;;;;;;33.90;24.05;;;;;;;1.66;82.08;96512.88;1734036;82;20938;-61
2021/01/25 00:54:09;;;;;;;34.45;22.85;;;;;;;1.71;81.96;96516.56;1734087;82;20937;-61
2021/01/25 00:56:37;;;;;;;32.93;23.95;;;;;;;1.72;81.73;96511.63;1734011;82;21001;-61
2021/01/25 00:59:07;;;;;;;29.92;22.62;;;;;;;1.73;81.66;96510.69;1734073;82;20930;-60
2021/01/25 01:01:34;;;;;;;31.15;23.02;;;;;;;1.73;81.63;96512.84;1734064;82;21380;-60
2021/01/25 01:04:02;;;;;;;31.37;21.73;;;;;;;1.75;81.63;96511.43;1734053;82;20942;-61
2021/01/25 01:06:30;;;;;;;25.92;20.85;;;;;;;1.76;81.53;96499.42;1734013;82;20930;-60
2021/01/25 01:08:58;;;;;;;25.15;18.10;;;;;;;1.78;81.46;96490.92;1734032;82;20946;-61
2021/01/25 01:11:25;;;;;;;27.95;19.75;;;;;;;1.82;81.42;96492.05;1734125;82;20994;-61
2021/01/25 01:13:53;;;;;;;28.62;20.35;;;;;;;1.83;81.58;96480.05;1734096;82;21369;-60
2021/01/25 01:16:21;;;;;;;33.33;21.27;;;;;;;1.87;81.63;96485.98;1759913;81;20908;-61
2021/01/25 01:18:49;;;;;;;28.12;20.30;;;;;;;1.90;81.63;96476.52;1760026;81;21003;-60
2021/01/25 01:21:17;;;;;;;27.70;20.35;;;;;;;1.92;81.45;96468.83;1760073;81;20987;-61
2021/01/25 01:23:45;;;;;;;29.15;21.62;;;;;;;1.94;81.27;96464.30;1760117;81;21034;-62
2021/01/25 01:26:15;;;;;;;27.62;20.23;;;;;;;1.97;81.11;96464.55;1751856;80;21373;-61
2021/01/25 01:28:43;;;;;;;34.67;22.95;;;;;;;1.98;80.95;96460.97;1705316;84;21027;-61
2021/01/25 01:31:10;;;;;;;30.62;21.85;;;;;;;2.01;80.82;96456.80;1705553;84;21000;-62
2021/01/25 01:33:37;;;;;;;29.70;21.25;;;;;;;2.03;80.87;96441.64;1705508;84;21040;-62
2021/01/25 01:36:05;;;;;;;25.88;21.10;;;;;;;2.02;80.58;96432.02;1705498;84;21591;-62
2021/01/25 01:38:33;;;;;;;25.25;19.70;;;;;;;2.02;80.22;96432.02;1705408;84;21354;-60
2021/01/25 01:41:00;;;;;;;25.02;19.02;;;;;;;1.99;80.18;96429.58;1705477;84;20944;-60
2021/01/25 01:43:28;;;;;;;27.35;19.25;;;;;;;1.97;80.20;96423.52;1705468;84;20995;-61
2021/01/25 01:45:56;;;;;;;24.05;17.55;;;;;;;1.97;80.32;96430.13;1705484;83;21010;-61
2021/01/25 01:48:23;;;;;;;15.30;13.70;;;;;;;1.97;80.46;96427.48;1705524;84;20940;-60
2021/01/25 01:50:52;;;;;;;19.02;15.20;;;;;;;1.97;80.44;96435.42;1705436;83;22146;-61
2021/01/25 01:53:19;;;;;;;17.82;14.85;;;;;;;1.97;80.57;96432.33;1705441;83;20939;-61
2021/01/25 01:55:47;;;;;;;15.60;13.55;;;;;;;1.97;80.71;96426.16;1660963;84;21026;-61
2021/01/25 01:58:14;;;;;;;14.83;12.28;;;;;;;1.98;80.75;96429.20;1705454;83;20943;-61
2021/01/25 02:00:44;;;;;;;14.45;11.70;;;;;;;2.00;80.62;96431.25;1705407;84;20935;-61
2021/01/25 02:03:12;;;;;;;13.30;11.05;;;;;;;2.03;80.61;96432.38;1705526;83;21189;-61
2021/01/25 02:05:41;;;;;;;12.10;10.65;;;;;;;2.04;80.61;96426.14;1705412;84;20931;-61
2021/01/25 02:08:08;;;;;;;12.63;10.65;;;;;;;2.05;80.51;96424.33;1705570;84;21441;-61
2021/01/25 02:10:35;;;;;;;10.85;9.75;;;;;;;2.05;80.49;96427.84;1705402;83;20987;-61
2021/01/25 02:13:03;;;;;;;12.90;10.70;;;;;;;2.05;80.41;96432.27;1705496;83;20936;-61
2021/01/25 02:15:30;;;;;;;12.78;11.48;;;;;;;2.06;80.38;96429.52;1705498;84;21335;-61
2021/01/25 02:17:58;;;;;;;13.10;11.60;;;;;;;2.07;80.26;96425.09;1705469;84;21413;-61
2021/01/25 02:20:33;;;;;;;11.80;10.60;;;;;;;2.08;80.24;96425.00;1705456;83;20987;-61
2021/01/25 02:23:26;;;;;;;12.25;11.00;;;;;;;2.09;80.31;96433.30;1705405;83;20948;-61
2021/01/25 02:26:29;;;;;;;11.25;9.80;;;;;;;2.11;80.15;96434.52;1713309;82;20931;-61
2021/01/25 02:28:58;;;;;;;12.27;9.80;;;;;;;2.10;80.03;96420.44;1731544;83;21393;-61
2021/01/25 02:31:26;;;;;;;12.00;10.23;;;;;;;2.10;79.84;96422.25;1731258;83;21025;-61
2021/01/25 02:33:54;;;;;;;11.10;9.43;;;;;;;2.09;79.74;96416.08;1731263;82;20934;-61
2021/01/25 02:36:21;;;;;;;11.10;9.75;;;;;;;2.09;79.60;96417.41;1731261;83;20899;-60
2021/01/25 02:38:52;;;;;;;10.88;9.88;;;;;;;2.09;79.56;96426.67;1732682;81;20916;-60
2021/01/25 02:41:27;;;;;;;11.35;9.38;;;;;;;2.07;79.56;96425.09;1759937;81;21431;-61
2021/01/25 02:43:57;;;;;;;10.98;9.78;;;;;;;2.05;79.53;96427.84;1759874;81;21026;-62
2021/01/25 02:46:25;;;;;;;10.48;9.48;;;;;;;2.04;79.64;96423.98;1759885;81;21019;-61
2021/01/25 02:48:53;;;;;;;12.33;11.03;;;;;;;2.00;79.71;96427.28;1759854;81;20994;-61
2021/01/25 02:51:22;;;;;;;15.98;13.80;;;;;;;1.99;79.65;96423.80;1759943;81;20935;-61
2021/01/25 02:53:49;;;;;;;21.20;18.27;;;;;;;1.98;79.62;96423.89;1759924;81;21278;-61
2021/01/25 02:56:16;;;;;;;19.02;16.97;;;;;;;1.95;79.77;96410.37;1759804;81;21006;-60
2021/01/25 02:58:45;;;;;;;18.42;16.52;;;;;;;1.93;79.85;96418.06;1759921;81;21063;-60
2021/01/25 03:01:15;;;;;;;16.40;14.75;;;;;;;1.92;79.91;96413.71;1759874;81;20924;-60
2021/01/25 03:03:43;;;;;;;13.68;12.15;;;;;;;1.90;79.93;96405.03;1760070;81;20876;-61
2021/01/25 03:06:11;;;;;;;11.50;10.20;;;;;;;1.87;79.94;96405.23;1759953;81;22167;-61
2021/01/25 03:08:38;;;;;;;11.25;10.05;;;;;;;1.85;80.05;96399.20;1759909;81;21437;-61
2021/01/25 03:11:06;;;;;;;10.95;9.85;;;;;;;1.85;80.04;96403.17;1759912;81;21007;-61
2021/01/25 03:13:35;;;;;;;13.90;10.85;;;;;;;1.83;80.06;96401.95;1732652;81;21022;-61
2021/01/25 03:16:02;;;;;;;11.25;9.90;;;;;;;1.80;80.16;96395.05;1760022;81;20880;-61
2021/01/25 03:18:30;;;;;;;10.53;9.33;;;;;;;1.79;80.27;96385.89;1759772;81;21395;-61
2021/01/25 03:20:58;;;;;;;10.08;8.95;;;;;;;1.77;80.35;96379.37;1759834;81;21003;-61
2021/01/25 03:23:25;;;;;;;10.35;9.25;;;;;;;1.74;80.28;96368.98;1759905;81;21002;-62
2021/01/25 03:25:54;;;;;;;9.55;8.55;;;;;;;1.72;80.32;96357.66;1757475;81;21055;-61
2021/01/25 03:28:24;;;;;;;11.75;10.40;;;;;;;1.69;80.32;96351.25;1705609;84;20923;-61
2021/01/25 03:30:52;;;;;;;10.60;9.05;;;;;;;1.66;80.52;96344.00;1705548;84;21248;-62
2021/01/25 03:33:19;;;;;;;11.12;9.95;;;;;;;1.59;80.83;96332.49;1705529;83;21006;-61
2021/01/25 03:35:48;;;;;;;10.10;9.13;;;;;;;1.54;81.07;96329.77;1705570;83;20990;-61
2021/01/25 03:38:15;;;;;;;9.98;8.98;;;;;;;1.50;81.23;96324.29;1705481;84;21007;-62
2021/01/25 03:40:42;;;;;;;11.30;10.00;;;;;;;1.44;81.35;96327.72;1705544;83;20924;-61
2021/01/25 03:43:14;;;;;;;11.38;9.38;;;;;;;1.39;81.50;96319.25;1705631;84;21214;-61
2021/01/25 03:45:41;;;;;;;10.70;9.48;;;;;;;1.37;81.65;96308.39;1705519;84;20912;-61
2021/01/25 03:48:13;;;;;;;11.70;9.88;;;;;;;1.34;81.98;96301.52;1705509;84;20991;-61
2021/01/25 03:50:42;;;;;;;12.18;10.93;;;;;;;1.30;82.28;96298.69;1705628;84;20892;-61
2021/01/25 03:53:10;;;;;;;11.25;10.05;;;;;;;1.30;82.35;96297.85;1705624;84;21010;-61
2021/01/25 03:55:38;;;;;;;12.30;10.40;;;;;;;1.27;82.49;96292.28;1705546;83;21206;-61
2021/01/25 03:58:06;;;;;;;11.18;10.08;;;;;;;1.26;82.63;96287.47;1705437;84;21070;-62
2021/01/25 04:00:35;;;;;;;11.93;10.65;;;;;;;1.28;82.79;96286.50;1705467;84;21058;-61
2021/01/25 04:03:03;;;;;;;10.82;9.68;;;;;;;1.29;82.87;96286.41;1705498;83;20923;-61
2021/01/25 04:05:32;;;;;;;9.85;8.85;;;;;;;1.29;82.87;96286.41;1705578;84;20896;-61
2021/01/25 04:08:00;;;;;;;11.68;10.15;;;;;;;1.30;82.81;96283.30;1705573;84;21486;-61
2021/01/25 04:10:27;;;;;;;11.83;9.85;;;;;;;1.30;82.78;96290.75;1705443;84;21001;-61
2021/01/25 04:12:56;;;;;;;10.88;8.98;;;;;;;1.31;82.77;96288.50;1705492;84;21023;-62
2021/01/25 04:15:23;;;;;;;10.78;9.38;;;;;;;1.34;82.77;96290.07;1705489;83;20960;-61
2021/01/25 04:17:51;;;;;;;11.10;8.88;;;;;;;1.35;82.70;96279.88;1705553;83;20919;-61
2021/01/25 04:20:20;;;;;;;10.18;9.13;;;;;;;1.34;82.55;96277.72;1705575;84;23591;-61
2021/01/25 04:22:48;;;;;;;10.68;9.58;;;;;;;1.34;82.48;96265.81;1705405;84;21007;-60
2021/01/25 04:25:15;;;;;;;9.55;8.58;;;;;;;1.35;82.50;96258.72;1705480;83;21038;-61
2021/01/25 04:27:44;;;;;;;10.53;9.38;;;;;;;1.34;82.50;96253.91;1705436;83;20931;-61
2021/01/25 04:30:14;;;;;;;9.98;9.05;;;;;;;1.34;82.44;96257.88;1705508;84;20939;-61
2021/01/25 04:32:42;;;;;;;11.33;9.88;;;;;;;1.32;82.45;96257.11;1705661;83;22275;-60
2021/01/25 04:35:12;;;;;;;10.25;9.18;;;;;;;1.29;82.47;96250.70;1705410;84;21330;-61
2021/01/25 04:37:41;;;;;;;12.43;10.63;;;;;;;1.28;82.66;96250.34;1705495;83;21014;-61
2021/01/25 04:40:11;;;;;;;13.32;11.22;;;;;;;1.28;82.76;96245.06;1705473;84;20944;-61
2021/01/25 04:42:39;;;;;;;12.07;10.82;;;;;;;1.28;82.75;96233.16;1705522;83;21010;-62
2021/01/25 04:45:09;;;;;;;11.68;10.48;;;;;;;1.30;82.80;96231.25;1705542;83;21379;-62
2021/01/25 04:47:38;;;;;;;14.28;12.78;;;;;;;1.29;82.83;96216.31;1705419;83;21007;-61
2021/01/25 04:50:07;;;;;;;12.82;11.53;;;;;;;1.29;82.83;96218.96;1705483;84;21024;-61
2021/01/25 04:52:35;;;;;;;11.57;10.38;;;;;;;1.27;82.91;96220.87;1705515;84;21038;-61
2021/01/25 04:55:05;;;;;;;11.25;10.05;;;;;;;1.28;82.94;96220.39;1705486;84;20939;-61
2021/01/25 04:57:33;;;;;;;11.05;9.40;;;;;;;1.28;82.93;96215.97;1705548;84;21281;-61
2021/01/25 05:00:07;;;;;;;10.78;9.70;;;;;;;1.28;82.82;96207.16;1705347;83;20943;-62
2021/01/25 05:02:31;;;;;;;10.18;9.08;;;;;;;1.29;82.86;96205.73;1705542;83;20971;-61
2021/01/25 05:05:00;;;;;;;10.95;9.48;;;;;;;1.29;82.91;96193.84;1705491;84;20936;-61
2021/01/25 05:07:29;;;;;;;9.25;8.28;;;;;;;1.29;82.88;96195.16;1705471;84;21005;-60
2021/01/25 05:09:57;;;;;;;9.63;8.63;;;;;;;1.28;82.91;96184.23;1705512;84;21158;-61
2021/01/25 05:12:47;;;;;;;11.43;9.03;;;;;;;1.28;82.78;96179.39;1705474;84;21022;-61
2021/01/25 05:15:29;;;;;;;9.63;8.65;;;;;;;1.27;82.81;96174.59;1705545;84;20943;-61
2021/01/25 05:18:06;;;;;;;12.20;10.75;;;;;;;1.26;82.96;96180.37;1705685;84;21019;-61
2021/01/25 05:20:34;;;;;;;14.15;12.58;;;;;;;1.26;83.05;96185.66;1705170;84;20936;-61
2021/01/25 05:23:13;;;;;;;15.23;11.70;;;;;;;1.24;83.00;96182.73;1705592;84;22132;-61
2021/01/25 05:25:41;;;;;;;13.58;11.60;;;;;;;1.24;83.04;96174.80;1705426;84;20971;-61
2021/01/25 05:28:19;;;;;;;14.10;12.60;;;;;;;1.25;83.10;96165.92;1725062;83;20994;-61
2021/01/25 05:30:47;;;;;;;16.90;14.05;;;;;;;1.27;83.06;96169.30;1731177;83;21435;-61
2021/01/25 05:33:27;;;;;;;19.98;14.98;;;;;;;1.27;83.10;96169.30;1731267;83;21495;-60
2021/01/25 05:35:55;;;;;;;24.02;17.05;;;;;;;1.27;83.08;96162.69;1731254;83;21374;-60
2021/01/25 05:38:23;;;;;;;17.02;13.15;;;;;;;1.27;83.09;96162.69;1731088;83;20906;-61
2021/01/25 05:40:55;;;;;;;15.30;12.23;;;;;;;1.27;83.07;96161.37;1731094;82;20942;-62
2021/01/25 05:43:32;;;;;;;16.05;12.82;;;;;;;1.28;82.93;96157.78;1731242;83;20938;-61
2021/01/25 05:46:11;;;;;;;20.05;14.98;;;;;;;1.29;82.98;96152.84;1731230;83;20891;-61
2021/01/25 05:48:39;;;;;;;22.67;14.93;;;;;;;1.28;83.11;96148.53;1730944;82;21328;-62
2021/01/25 05:51:13;;;;;;;38.80;19.62;;;;;;;1.29;83.16;96145.40;1731150;83;20954;-61
2021/01/25 05:53:42;;;;;;;30.20;15.53;;;;;;;1.29;83.12;96143.59;1731207;83;20962;-61
2021/01/25 05:56:11;;;;;;;28.65;16.45;;;;;;;1.29;82.98;96136.14;1731137;83;21014;-62
2021/01/25 05:58:39;;;;;;;28.35;14.45;;;;;;;1.30;82.88;96129.91;1731163;82;21017;-62
2021/01/25 06:01:06;;;;;;;31.93;16.73;;;;;;;1.31;82.94;96131.58;1731348;82;21204;-60
2021/01/25 06:03:37;;;;;;;55.38;25.02;;;;;;;1.29;82.92;96119.78;1731337;82;21365;-62
2021/01/25 06:06:11;;;;;;;37.33;21.80;;;;;;;1.26;82.93;96122.64;1731363;83;21496;-60
2021/01/25 06:08:53;;;;;;;28.42;17.25;;;;;;;1.24;82.95;96121.42;1731288;83;21459;-62
2021/01/25 06:11:25;;;;;;;20.85;14.93;;;;;;;1.23;83.08;96128.14;1732925;81;20915;-62
2021/01/25 06:14:24;;;;;;;19.45;13.58;;;;;;;1.22;83.18;96121.17;1759723;81;21462;-62
2021/01/25 06:16:52;;;;;;;15.18;11.05;;;;;;;1.20;83.22;96125.25;1759891;81;20955;-63
2021/01/25 06:19:22;;;;;;;10.40;8.55;;;;;;;1.17;83.26;96125.94;1759952;81;20999;-62
2021/01/25 06:21:50;;;;;;;42.88;32.67;;;;;;;1.15;83.29;96114.59;1759882;81;21432;-61
2021/01/25 06:24:19;;;;;;;18.65;16.32;;;;;;;1.12;83.36;96108.20;1760040;81;21011;-61
2021/01/25 06:26:51;;;;;;;10.08;8.03;;;;;;;1.11;83.44;96116.61;1731762;81;22130;-61
2021/01/25 06:29:19;;;;;;;7.40;6.58;;;;;;;1.10;83.64;96114.08;1705548;84;20998;-61
2021/01/25 06:31:56;;;;;;;7.22;6.10;;;;;;;1.07;83.76;96112.02;1705505;84;20987;-62
2021/01/25 06:34:26;;;;;;;5.22;4.72;;;;;;;1.06;83.93;96107.67;1705626;83;21474;-61
2021/01/25 06:36:55;;;;;;;4.65;4.12;;;;;;;1.07;83.99;96108.51;1705635;83;20939;-61
2021/01/25 06:39:29;;;;;;;4.37;3.98;;;;;;;1.05;84.00;96104.64;1705520;84;21339;-61
2021/01/25 06:42:05;;;;;;;5.20;3.77;;;;;;;1.08;83.98;96109.72;1705561;84;20990;-61
2021/01/25 06:44:34;;;;;;;4.65;3.77;;;;;;;1.07;83.96;96108.51;1705622;84;20904;-60
2021/01/25 06:47:04;;;;;;;5.92;4.67;;;;;;;1.06;84.01;96107.67;1705513;84;20936;-60
2021/01/25 06:49:32;;;;;;;5.45;3.67;;;;;;;1.05;84.08;96106.45;1705579;83;20940;-62
2021/01/25 06:51:59;;;;;;;6.22;5.20;;;;;;;1.05;84.10;96105.97;1705714;84;21381;-62
2021/01/25 06:54:27;;;;;;;4.72;4.05;;;;;;;1.04;84.09;96100.33;1705581;83;20955;-60
2021/01/25 06:57:00;;;;;;;5.60;4.35;;;;;;;1.05;84.14;96087.46;1705370;84;21330;-61
2021/01/25 06:59:32;;;;;;;4.05;3.65;;;;;;;1.05;84.20;96095.39;1705323;84;21022;-61
2021/01/25 07:02:02;;;;;;;4.83;3.67;;;;;;;1.06;84.40;96093.13;1705609;84;20948;-61
2021/01/25 07:04:30;;;;;;;5.03;3.58;;;;;;;1.07;84.31;96092.19;1684056;84;21366;-63
2021/01/25 07:06:58;;;;;;;5.42;3.80;;;;;;;1.06;84.19;96089.16;1705547;84;20955;-61
2021/01/25 07:09:31;;;;;;;4.95;3.95;;;;;;;1.10;84.24;96099.53;1705539;83;20999;-62
2021/01/25 07:12:02;;;;;;;5.85;3.80;;;;;;;1.10;84.28;96095.56;1705670;83;22634;-61
2021/01/25 07:14:31;;;;;;;5.50;4.72;;;;;;;1.11;84.29;96097.27;1705609;84;21007;-61
2021/01/25 07:16:59;;;;;;;4.35;3.83;;;;;;;1.12;84.27;96091.01;1705602;84;22593;-61
2021/01/25 07:19:29;;;;;;;3.95;3.47;;;;;;;1.14;84.24;96091.29;1705442;84;21065;-61
2021/01/25 07:21:56;;;;;;;4.10;3.45;;;;;;;1.17;84.23;96088.92;1705569;84;20995;-63
2021/01/25 07:24:26;;;;;;;5.95;3.92;;;;;;;1.20;84.10;96082.07;1705541;84;20940;-62
2021/01/25 07:26:59;;;;;;;5.12;3.60;;;;;;;1.21;83.94;96089.06;1705617;84;20983;-62
2021/01/25 07:29:27;;;;;;;4.72;3.37;;;;;;;1.23;83.90;96100.38;1684516;85;20993;-61
2021/01/25 07:31:56;;;;;;;3.92;3.00;;;;;;;1.22;83.71;96097.38;1684547;84;20961;-62
2021/01/25 07:34:25;;;;;;;4.17;2.92;;;;;;;1.24;83.61;96102.08;1684580;85;20926;-62
2021/01/25 07:36:53;;;;;;;4.95;3.50;;;;;;;1.26;83.57;96102.80;1684549;85;20949;-62
2021/01/25 07:39:20;;;;;;;3.92;3.40;;;;;;;1.27;83.62;96100.54;1684487;85;20958;-63
2021/01/25 07:41:49;;;;;;;4.80;2.98;;;;;;;1.25;83.49;96096.68;1684607;85;21201;-63
2021/01/25 07:44:16;;;;;;;8.63;4.37;;;;;;;1.26;83.26;96101.03;1684494;85;21060;-62
2021/01/25 07:46:46;;;;;;;4.62;2.95;;;;;;;1.27;83.20;96095.25;1684661;85;20950;-66
2021/01/25 07:49:14;;;;;;;5.17;3.80;;;;;;;1.25;83.18;96092.72;1684531;85;20958;-60
2021/01/25 07:51:43;;;;;;;6.00;4.53;;;;;;;1.26;83.18;96092.23;1684580;84;20938;-62
2021/01/25 07:54:15;;;;;;;6.70;4.10;;;;;;;1.26;83.20;96094.88;1684562;85;21320;-68
2021/01/25 07:56:43;;;;;;;6.87;4.07;;;;;;;1.25;83.19;96095.84;1684633;85;20961;-62
2021/01/25 07:59:17;;;;;;;4.50;3.52;;;;;;;1.25;83.05;96101.13;1684471;85;20922;-62
2021/01/25 08:01:53;;;;;;;5.47;4.12;;;;;;;1.25;83.04;96091.87;1684240;85;20958;-62
2021/01/25 08:04:24;;;;;;;4.28;3.85;;;;;;;1.25;83.01;96093.20;1684493;84;20966;-62
2021/01/25 08:06:53;;;;;;;4.55;3.42;;;;;;;1.24;82.98;96092.82;1684556;84;21376;-64
2021/01/25 08:09:21;;;;;;;3.45;3.12;;;;;;;1.22;83.01;96089.44;1684495;85;20957;-61
2021/01/25 08:11:49;;;;;;;4.70;3.17;;;;;;;1.23;82.98;96094.62;1684555;85;21037;-61
2021/01/25 08:14:42;;;;;;;6.08;4.25;;;;;;;1.23;82.93;96086.70;1680476;85;21012;-61
2021/01/25 08:17:25;;;;;;;4.58;4.03;;;;;;;1.24;83.11;96091.01;1684596;85;21033;-62
2021/01/25 08:20:08;;;;;;;4.40;3.85;;;;;;;1.26;83.14;96093.55;1684606;85;21377;-64
2021/01/25 08:22:59;;;;;;;5.47;3.45;;;;;;;1.28;83.05;96085.52;1684468;85;20954;-62
2021/01/25 08:25:27;;;;;;;5.22;2.72;;;;;;;1.29;82.90;96078.80;1647416;85;21001;-62
2021/01/25 08:28:09;;;;;;;4.10;3.10;;;;;;;1.30;82.72;96081.81;1689568;83;21078;-62
2021/01/25 08:30:40;;;;;;;4.90;3.22;;;;;;;1.30;82.55;96084.46;1705506;84;21031;-61
2021/01/25 08:33:10;;;;;;;4.17;3.22;;;;;;;1.28;82.54;96079.77;1705545;84;21352;-61
2021/01/25 08:35:52;;;;;;;3.80;2.90;;;;;;;1.25;82.55;96079.49;1705453;83;21006;-61
2021/01/25 08:38:30;;;;;;;3.05;2.72;;;;;;;1.24;82.47;96079.59;1705658;83;20987;-61
2021/01/25 08:41:01;;;;;;;5.95;3.08;;;;;;;1.24;82.41;96076.95;1705455;84;21015;-62
2021/01/25 08:43:31;;;;;;;3.80;2.80;;;;;;;1.23;82.54;96081.41;1705529;84;20955;-62
2021/01/25 08:46:15;;;;;;;3.72;2.92;;;;;;;1.22;82.72;96078.87;1705493;84;21565;-60
2021/01/25 08:48:44;;;;;;;4.17;2.75;;;;;;;1.24;82.74;96083.56;1705423;83;20952;-61
2021/01/25 08:51:31;;;;;;;3.40;2.47;;;;;;;1.26;82.48;96081.65;1705482;84;21022;-62
2021/01/25 08:54:06;;;;;;;4.60;3.52;;;;;;;1.27;82.29;96076.74;1705583;84;21003;-63
2021/01/25 08:56:41;;;;;;;3.50;2.80;;;;;;;1.25;82.27;96070.72;1704801;84;20955;-62
2021/01/25 08:59:13;;;;;;;3.42;2.75;;;;;;;1.23;82.26;96073.47;1705232;84;21329;-63
2021/01/25 09:01:44;;;;;;;3.65;3.25;;;;;;;1.26;82.40;96075.91;1705589;83;20943;-63
2021/01/25 09:04:12;;;;;;;4.15;2.98;;;;;;;1.29;82.45;96079.28;1705495;84;20967;-62
2021/01/25 09:06:50;;;;;;;4.35;3.25;;;;;;;1.31;82.12;96083.52;1705483;84;21015;-63
2021/01/25 09:09:19;;;;;;;4.37;3.75;;;;;;;1.35;81.74;96086.80;1705586;84;21445;-66
2021/01/25 09:11:47;;;;;;;3.15;2.58;;;;;;;1.34;81.81;96086.41;1705534;84;21352;-62
2021/01/25 09:14:17;;;;;;;2.75;2.40;;;;;;;1.34;81.76;96081.98;1705347;84;21043;-64
2021/01/25 09:16:45;;;;;;;3.62;2.77;;;;;;;1.34;81.54;96087.28;1705565;84;20927;-62
2021/01/25 09:19:14;;;;;;;3.20;2.72;;;;;;;1.36;81.51;96084.05;1705415;83;20947;-62
2021/01/25 09:21:42;;;;;;;3.05;2.12;;;;;;;1.38;81.45;96075.52;1705502;84;20944;-63
2021/01/25 09:24:10;;;;;;;3.00;2.35;;;;;;;1.38;81.25;96076.00;1705461;84;21345;-63
2021/01/25 09:26:37;;;;;;;3.10;2.80;;;;;;;1.35;81.20;96063.83;1705379;83;20965;-63
2021/01/25 09:29:05;;;;;;;3.45;2.40;;;;;;;1.36;81.20;96068.66;1711742;83;20943;-62
2021/01/25 09:31:33;;;;;;;3.77;2.60;;;;;;;1.35;81.18;96074.41;1716658;83;20955;-62
2021/01/25 09:34:01;;;;;;;3.00;2.65;;;;;;;1.33;81.31;96064.91;1716754;83;20943;-63
2021/01/25 09:36:28;;;;;;;3.17;2.77;;;;;;;1.33;81.31;96069.70;1716673;83;21206;-63
2021/01/25 09:38:59;;;;;;;2.77;2.12;;;;;;;1.36;81.33;96073.95;1716296;83;20979;-66
2021/01/25 09:41:27;;;;;;;3.08;2.70;;;;;;;1.35;81.35;96065.14;1716526;83;21018;-64
2021/01/25 09:43:54;;;;;;;3.77;2.92;;;;;;;1.37;81.31;96064.59;1716670;83;20939;-63
2021/01/25 09:46:24;;;;;;;3.67;2.52;;;;;;;1.39;81.24;96057.38;1716713;83;20939;-63
2021/01/25 09:48:53;;;;;;;3.92;2.70;;;;;;;1.39;81.14;96057.38;1716634;83;23675;-64
2021/01/25 09:51:20;;;;;;;5.62;3.47;;;;;;;1.43;81.12;96050.93;1716721;83;21488;-64
2021/01/25 09:53:49;;;;;;;4.22;2.85;;;;;;;1.49;81.13;96054.09;1716738;83;20959;-63
2021/01/25 09:56:17;;;;;;;3.85;2.35;;;;;;;1.54;81.20;96049.31;1716751;83;21013;-62
2021/01/25 09:58:45;;;;;;;3.35;2.98;;;;;;;1.55;80.82;96044.40;1716681;83;20951;-69
2021/01/25 10:01:15;;;;;;;4.78;2.62;;;;;;;1.58;80.70;96052.95;1716724;83;21198;-62
2021/01/25 10:03:44;;;;;;;4.78;3.10;;;;;;;1.61;80.54;96053.23;1716638;83;20963;-63
2021/01/25 10:06:11;;;;;;;5.35;3.35;;;;;;;1.64;80.45;96053.02;1716677;83;21377;-62
2021/01/25 10:08:39;;;;;;;4.03;2.60;;;;;;;1.66;80.27;96053.74;1716636;83;20994;-63
2021/01/25 10:11:07;;;;;;;6.60;3.98;;;;;;;1.66;80.08;96060.36;1716728;83;20985;-63
2021/01/25 10:13:34;;;;;;;7.35;6.62;;;;;;;1.68;80.08;96059.76;1716708;83;21356;-63
2021/01/25 10:16:02;;;;;;;4.95;3.92;;;;;;;1.69;79.94;96066.75;1716625;83;20911;-63
2021/01/25 10:18:30;;;;;;;3.87;3.27;;;;;;;1.69;79.85;96065.43;1716646;83;21006;-63
2021/01/25 10:20:58;;;;;;;3.52;2.40;;;;;;;1.70;80.07;96063.13;1716638;83;20994;-62
2021/01/25 10:23:26;;;;;;;3.60;2.47;;;;;;;1.70;80.04;96071.56;1716757;83;21480;-62
2021/01/25 10:25:53;;;;;;;2.60;2.20;;;;;;;1.69;79.83;96061.46;1716746;83;21405;-62
2021/01/25 10:28:20;;;;;;;3.20;2.83;;;;;;;1.67;79.70;96059.87;1715185;83;20955;-62
2021/01/25 10:30:48;;;;;;;4.60;3.30;;;;;;;1.66;79.77;96050.26;1705499;83;20991;-63
2021/01/25 10:33:15;;;;;;;3.77;2.95;;;;;;;1.60;79.81;96067.41;1705463;83;21009;-62
2021/01/25 10:35:44;;;;;;;4.87;3.55;;;;;;;1.54;79.80;96078.41;1705523;83;21343;-62
2021/01/25 10:38:12;;;;;;;3.40;2.67;;;;;;;1.52;79.88;96089.59;1705433;83;21382;-63
2021/01/25 10:40:40;;;;;;;4.97;3.00;;;;;;;1.50;80.00;96095.45;1705355;84;21003;-63
2021/01/25 10:43:07;;;;;;;4.95;3.40;;;;;;;1.43;80.04;96093.71;1705493;84;20987;-63
2021/01/25 10:45:35;;;;;;;4.53;3.52;;;;;;;1.41;80.20;96089.02;1705544;84;20936;-62
2021/01/25 10:48:04;;;;;;;4.15;3.12;;;;;;;1.33;80.21;96098.80;1705635;83;20943;-62
2021/01/25 10:50:31;;;;;;;3.85;3.10;;;;;;;1.32;80.21;96110.80;1705583;84;21259;-62
2021/01/25 10:52:59;;;;;;;5.03;3.70;;;;;;;1.30;80.49;96112.23;1705545;84;21003;-62
2021/01/25 10:55:26;;;;;;;5.40;4.42;;;;;;;1.28;80.39;96115.92;1705607;84;21054;-63
2021/01/25 10:57:54;;;;;;;4.22;3.70;;;;;;;1.24;80.42;96131.16;1705601;84;20932;-62
2021/01/25 11:00:24;;;;;;;4.20;3.70;;;;;;;1.22;80.52;96107.95;1705530;84;20956;-63
2021/01/25 11:02:52;;;;;;;4.08;3.33;;;;;;;1.22;80.55;96118.05;1705649;84;21475;-63
2021/01/25 11:05:23;;;;;;;5.05;3.90;;;;;;;1.21;80.66;96117.66;1705555;84;21010;-62
2021/01/25 11:07:52;;;;;;;5.00;4.50;;;;;;;1.18;80.54;96117.91;1705687;84;20943;-62
2021/01/25 11:10:25;;;;;;;4.75;3.95;;;;;;;1.16;80.70;96121.59;1705554;83;21393;-62
2021/01/25 11:12:54;;;;;;;4.35;4.03;;;;;;;1.18;80.81;96121.00;1705603;84;20928;-61
2021/01/25 11:15:23;;;;;;;4.78;3.70;;;;;;;1.21;80.49;96114.19;1705585;84;21263;-62
2021/01/25 11:17:50;;;;;;;4.87;4.03;;;;;;;1.22;80.44;96106.63;1705623;84;21396;-61
2021/01/25 11:20:19;;;;;;;5.87;5.03;;;;;;;1.16;80.18;96095.15;1705500;84;21022;-61
2021/01/25 11:22:46;;;;;;;5.97;4.95;;;;;;;1.18;80.31;96109.10;1705564;84;21062;-63
2021/01/25 11:25:14;;;;;;;5.62;4.15;;;;;;;1.20;80.35;96115.98;1705551;83;20931;-61
2021/01/25 11:27:42;;;;;;;5.70;4.65;;;;;;;1.21;80.50;96119.47;1705580;83;21213;-61
2021/01/25 11:30:11;;;;;;;5.67;4.40;;;;;;;1.19;80.28;96125.35;1705449;83;20982;-62
2021/01/25 11:32:38;;;;;;;8.80;5.67;;;;;;;1.19;80.19;96131.96;1705648;84;21440;-61
2021/01/25 11:35:09;;;;;;;7.62;6.28;;;;;;;1.19;80.36;96125.35;1705510;84;20959;-61
2021/01/25 11:37:37;;;;;;;8.73;5.00;;;;;;;1.19;80.27;96116.09;1705547;84;21043;-62
2021/01/25 11:40:09;;;;;;;8.63;5.95;;;;;;;1.19;80.45;96113.45;1705502;84;21200;-62
2021/01/25 11:42:37;;;;;;;6.50;4.90;;;;;;;1.19;80.34;96117.42;1705536;84;20995;-63
2021/01/25 11:45:07;;;;;;;6.42;4.35;;;;;;;1.17;80.15;96105.63;1705530;83;21034;-60
2021/01/25 11:47:35;;;;;;;5.72;4.42;;;;;;;1.16;79.97;96105.24;1705501;84;21994;-60